Ampthill, VA

5:44 AM EDT on September 17, 2014 (GMT -0400)
Fernbrook | Change Station
CLOSE
Current Station
Personal Weather Station
Location: Richmond, VA
Elevation: 184 ft
Nearby Weather Stations

Elev 184 ft 37.44 °N, 77.56 °W | Updated 40 seconds ago

Mostly Cloudy
Mostly Cloudy
61.0 °F
Feels Like 61.0 °F
N
0.0
Wind Variable Wind from SSE
Gusts 0.0 mph

Today
High -- | Low -- °F
--% Chance of Precip.
Yesterday
High -- | Low -- °F
Precip. -- in
6:53 AM 7:14 PM
Last Quarter, 37% visible
Pressure 30.02 in
Visibility 10.0 miles
Clouds Few 6000 ft
Scattered Clouds 9500 ft
Dew Point 58 °F
Humidity 91%
Rainfall 0.00 in
Snow Depth Not available.
UV 0 out of 12
Pollen 6.90 out of 12
Ozone Good
PM2.5 Good
Flu Activity Not available.
METAR KRIC 170854Z 01005KT 10SM FEW060 SCT095 16/13 A3001 RMK AO2 SLP165 T01610133 57002

More Conditions Fewer Conditions

Pressure 30.02 in
Visibility 10.0 miles
Clouds Few 6000 ft
Scattered Clouds 9500 ft
Dew Point 58 °F
Humidity 91%
Rainfall 0.00 in
Snow Depth Not available.
UV 0 out of 12
Pollen 6.90 out of 12
Ozone Good
PM2.5 Good
Flu Activity Not available.
METAR KRIC 170854Z 01005KT 10SM FEW060 SCT095 16/13 A3001 RMK AO2 SLP165 T01610133 57002

More Conditions Fewer Conditions

10-Day Weather Forecast

Almanac

Astronomy

Sep. 17, 2014 Rise Set
Actual Time 6:53 AM EDT 7:14 PM EDT
Civil Twilight 6:27 AM EDT 7:40 PM EDT
Nautical Twilight 5:56 AM EDT 8:11 PM EDT
Astronomical Twilight 5:25 AM EDT 8:42 PM EDT
Moon 12:56 AM EDT 3:17 PM EDT
Length of Visible Light 13h 13m
Length of Day
12h 21m
Tomorrow will be 2m 23s shorter.
Last Quarter, 37% of the Moon is Illuminated
Today
Last Quarter
Sep 24
New
Oct 1
First Quarter
Oct 8
Full
Oct 15
Last Quarter

Today's Extremes

State Highs State Lows

Community

WunderPhotos

Upload Photos

1,753,991 photos uploaded!

Nearby

Air Quality

  Air Quality AQ Index Pollutant
Yesterday Good
OZONE
Yesterday Good
PM2.5
Current Good
PM2.5
Current Good
OZONE
Wednesday Good
OZONE
Wednesday Good
PM2.5

Snow Depth

Station Depth Elevation
No new snow has been reported.

Earthquake Activity

City Distance Mag. Time & Date
No recent earthquake activity has been reported nearby.
Minimum magnitude displayed is 2.5.

Coastal Water Temperatures

Place Temperature
No Stations Reporting

Nearby Weather Stations